Time;durP1;ratioP1;P1;durP2;ratioP2;P2;SDS_P1;SDS_P2;PMS_P1;PMS_P2;Temp;Humidity;BMP_temperature;BMP_pressure;BME280_temperature;BME280_humidity;BME280_pressure;Samples;Min_cycle;Max_cycle;Signal;HPM_P1;HPM_P2
2022/11/05 00:09:31;;;;;;;9.93;6.72;;;;;;;;;;5030962;28;20064;-87
2022/11/05 00:17:29;;;;;;;9.93;9.13;;;;;;;;;;5031690;28;20103;-87
2022/11/05 00:19:55;;;;;;;11.82;10.73;;;;;;;;;;5030788;28;20120;-88
2022/11/05 00:25:16;;;;;;;9.75;7.85;;;;;;;;;;5031467;28;20537;-87
2022/11/05 00:27:45;;;;;;;8.05;7.22;;;;;;;;;;5045700;28;20131;-87
2022/11/05 00:30:12;;;;;;;8.98;8.23;;;;;;;;;;5055278;28;20099;-87
2022/11/05 00:32:39;;;;;;;10.10;8.55;;;;;;;;;;5045059;28;20464;-88
2022/11/05 00:35:06;;;;;;;12.05;7.88;;;;;;;;;;5035478;28;20191;-88
2022/11/05 00:37:33;;;;;;;9.55;7.65;;;;;;;;;;5034566;28;20789;-88
2022/11/05 00:39:59;;;;;;;9.68;8.05;;;;;;;;;;5035077;28;20425;-88
2022/11/05 00:45:11;;;;;;;9.55;8.77;;;;;;;;;;5035257;28;20056;-88
2022/11/05 00:50:23;;;;;;;7.90;7.10;;;;;;;;;;5055019;28;20056;-88
2022/11/05 00:52:55;;;;;;;11.18;7.40;;;;;;;;;;5054836;28;20045;-88
2022/11/05 00:55:22;;;;;;;12.18;9.30;;;;;;;;;;5037486;28;20049;-87
2022/11/05 00:57:48;;;;;;;7.78;6.97;;;;;;;;;;5034763;28;20464;-87
2022/11/05 01:00:17;;;;;;;7.25;6.55;;;;;;;;;;5034771;28;20057;-87
2022/11/05 01:02:43;;;;;;;6.68;6.00;;;;;;;;;;5043730;28;20060;-86
2022/11/05 01:05:10;;;;;;;10.75;7.65;;;;;;;;;;5054876;28;20048;-86
2022/11/05 01:07:36;;;;;;;9.27;8.43;;;;;;;;;;5047244;28;20119;-86
2022/11/05 01:10:03;;;;;;;11.20;7.55;;;;;;;;;;5034096;28;20104;-85
2022/11/05 01:12:30;;;;;;;9.25;8.07;;;;;;;;;;5033811;28;20107;-85
2022/11/05 01:14:57;;;;;;;6.88;6.20;;;;;;;;;;5034486;28;20872;-85
2022/11/05 01:17:25;;;;;;;6.93;6.32;;;;;;;;;;5040015;28;20087;-85
2022/11/05 01:19:51;;;;;;;10.45;6.78;;;;;;;;;;5054302;28;20060;-85
2022/11/05 01:22:18;;;;;;;14.73;8.07;;;;;;;;;;5054565;28;20094;-87
2022/11/05 01:24:44;;;;;;;9.23;7.32;;;;;;;;;;5054280;28;20053;-87
2022/11/05 01:27:11;;;;;;;7.75;6.93;;;;;;;;;;5050930;28;20077;-87
2022/11/05 01:29:37;;;;;;;6.47;5.93;;;;;;;;;;5018177;28;20054;-88
2022/11/05 01:32:04;;;;;;;11.55;10.15;;;;;;;;;;5016487;28;20046;-88
2022/11/05 01:34:32;;;;;;;10.75;9.68;;;;;;;;;;5034128;28;20103;-88
2022/11/05 01:36:58;;;;;;;9.73;8.82;;;;;;;;;;5035124;28;20061;-88
2022/11/05 01:39:25;;;;;;;9.40;8.25;;;;;;;;;;5052583;28;20049;-88
2022/11/05 01:41:52;;;;;;;7.38;6.78;;;;;;;;;;5053751;28;20131;-87
2022/11/05 01:44:37;;;;;;;9.88;9.02;;;;;;;;;;5048823;28;20530;-88
2022/11/05 01:47:04;;;;;;;10.65;9.05;;;;;;;;;;5016884;28;20058;-88
2022/11/05 01:49:33;;;;;;;10.63;7.97;;;;;;;;;;5054126;28;20050;-85
2022/11/05 01:52:02;;;;;;;7.20;6.55;;;;;;;;;;5053716;28;20103;-86
2022/11/05 01:54:29;;;;;;;11.38;6.63;;;;;;;;;;5033818;28;20057;-86
2022/11/05 01:56:57;;;;;;;8.30;7.00;;;;;;;;;;5033904;28;20053;-86
2022/11/05 01:59:26;;;;;;;6.97;5.95;;;;;;;;;;5034043;28;20377;-86
2022/11/05 02:01:53;;;;;;;7.53;6.60;;;;;;;;;;5015545;28;20096;-85
2022/11/05 02:04:26;;;;;;;8.80;7.28;;;;;;;;;;5051816;28;20107;-86
2022/11/05 02:06:54;;;;;;;8.43;6.88;;;;;;;;;;5053521;28;20562;-86
2022/11/05 02:09:22;;;;;;;6.43;5.00;;;;;;;;;;5052545;28;20100;-86
2022/11/05 02:11:49;;;;;;;7.05;6.47;;;;;;;;;;5053704;28;20049;-86
2022/11/05 02:14:17;;;;;;;10.65;6.18;;;;;;;;;;5053191;28;20397;-86
2022/11/05 02:16:45;;;;;;;5.82;5.22;;;;;;;;;;5053274;28;20071;-86
2022/11/05 02:19:23;;;;;;;5.85;4.97;;;;;;;;;;5038514;28;20057;-86
2022/11/05 02:21:57;;;;;;;5.82;5.35;;;;;;;;;;5033043;28;20104;-86
2022/11/05 02:24:34;;;;;;;10.25;6.20;;;;;;;;;;5051403;28;20049;-86
2022/11/05 02:27:12;;;;;;;6.60;6.00;;;;;;;;;;5052961;28;20500;-86
2022/11/05 02:29:55;;;;;;;7.85;5.53;;;;;;;;;;5053216;28;20055;-86
2022/11/05 02:32:30;;;;;;;8.57;7.75;;;;;;;;;;5052529;28;20091;-86
2022/11/05 02:35:03;;;;;;;7.60;6.97;;;;;;;;;;5052901;28;20501;-86
2022/11/05 02:37:37;;;;;;;10.43;7.25;;;;;;;;;;5016029;28;20104;-85
2022/11/05 02:40:08;;;;;;;6.88;5.20;;;;;;;;;;5032349;28;20107;-88
2022/11/05 02:42:38;;;;;;;7.20;6.47;;;;;;;;;;5032879;28;20064;-86
2022/11/05 02:45:09;;;;;;;12.27;7.47;;;;;;;;;;5032912;28;20119;-87
2022/11/05 02:47:35;;;;;;;;;;;;;;;;;;5033979;28;20088;-88
2022/11/05 02:50:07;;;;;;;6.90;6.30;;;;;;;;;;5032958;28;19967;-86
2022/11/05 02:52:37;;;;;;;6.45;5.93;;;;;;;;;;5032297;28;20481;-86
2022/11/05 02:55:06;;;;;;;10.43;7.78;;;;;;;;;;5032758;28;20114;-86
2022/11/05 02:57:35;;;;;;;6.45;5.93;;;;;;;;;;5032713;28;20460;-86
2022/11/05 03:00:02;;;;;;;7.97;7.18;;;;;;;;;;5032715;28;20095;-86
2022/11/05 03:02:28;;;;;;;9.48;8.35;;;;;;;;;;5032667;28;20057;-85
2022/11/05 03:04:55;;;;;;;8.18;7.43;;;;;;;;;;5032524;28;20042;-85
2022/11/05 03:07:35;;;;;;;6.75;6.22;;;;;;;;;;5032634;28;20099;-86
2022/11/05 03:10:09;;;;;;;10.90;7.63;;;;;;;;;;5030955;28;20053;-87
2022/11/05 03:12:40;;;;;;;7.47;6.88;;;;;;;;;;5032697;28;20123;-87
2022/11/05 03:15:12;;;;;;;9.27;7.45;;;;;;;;;;5032541;28;20057;-87
2022/11/05 03:17:43;;;;;;;7.97;7.22;;;;;;;;;;5032407;28;20464;-86
2022/11/05 03:20:15;;;;;;;8.73;7.07;;;;;;;;;;5032212;28;20509;-87
2022/11/05 03:22:46;;;;;;;7.38;6.63;;;;;;;;;;5032071;28;20096;-87
2022/11/05 03:25:15;;;;;;;17.45;7.07;;;;;;;;;;5031613;28;20111;-86
2022/11/05 03:27:44;;;;;;;7.60;6.25;;;;;;;;;;5032938;28;20049;-87
2022/11/05 03:30:11;;;;;;;7.35;5.88;;;;;;;;;;5052119;28;20508;-87
2022/11/05 03:32:39;;;;;;;10.45;6.85;;;;;;;;;;5051975;28;20045;-88
2022/11/05 03:35:08;;;;;;;5.38;4.97;;;;;;;;;;5029983;28;20053;-86
2022/11/05 03:37:37;;;;;;;8.05;7.25;;;;;;;;;;5031995;28;20107;-86
2022/11/05 03:40:07;;;;;;;5.97;5.38;;;;;;;;;;5051581;28;20106;-87
2022/11/05 03:42:35;;;;;;;6.90;5.57;;;;;;;;;;5032961;28;20111;-86
2022/11/05 03:45:05;;;;;;;7.18;6.57;;;;;;;;;;5031931;28;20052;-87
2022/11/05 03:47:34;;;;;;;5.32;4.82;;;;;;;;;;5032101;28;20049;-86
2022/11/05 03:50:05;;;;;;;5.40;4.78;;;;;;;;;;5032227;28;20108;-86
2022/11/05 03:52:35;;;;;;;9.02;8.25;;;;;;;;;;5032259;28;20041;-86
2022/11/05 03:55:01;;;;;;;13.48;7.25;;;;;;;;;;5050548;28;20045;-86
2022/11/05 03:57:31;;;;;;;8.13;6.82;;;;;;;;;;5035033;28;20567;-87
2022/11/05 03:59:57;;;;;;;6.65;6.15;;;;;;;;;;5031893;28;20049;-86
2022/11/05 04:02:26;;;;;;;8.77;7.72;;;;;;;;;;5034701;28;20041;-86
2022/11/05 04:04:54;;;;;;;13.00;8.25;;;;;;;;;;5052652;28;20554;-86
2022/11/05 04:17:05;;;;;;;9.23;7.13;;;;;;;;;;5038136;28;20476;-87
2022/11/05 04:18:20;;;;;;;10.18;6.10;;;;;;;;;;5039233;28;20052;-88
2022/11/05 04:26:13;;;;;;;6.95;5.38;;;;;;;;;;5055362;28;20511;-86
2022/11/05 04:31:25;;;;;;;5.43;5.00;;;;;;;;;;5051029;28;20068;-86
2022/11/05 04:33:52;;;;;;;6.38;5.80;;;;;;;;;;5035428;28;20104;-86
2022/11/05 04:36:18;;;;;;;9.38;6.30;;;;;;;;;;5035343;28;20096;-86
2022/11/05 04:38:45;;;;;;;8.45;6.68;;;;;;;;;;5035377;28;20490;-87
2022/11/05 04:41:12;;;;;;;6.10;5.25;;;;;;;;;;5035314;28;20053;-87
2022/11/05 04:43:39;;;;;;;6.13;5.72;;;;;;;;;;5035262;28;20075;-86
2022/11/05 04:46:07;;;;;;;6.30;5.18;;;;;;;;;;5035184;28;20115;-87
2022/11/05 04:48:33;;;;;;;5.78;5.05;;;;;;;;;;5034170;28;20111;-86
2022/11/05 04:51:00;;;;;;;7.30;6.18;;;;;;;;;;5035189;28;20054;-87
2022/11/05 04:53:26;;;;;;;5.97;5.43;;;;;;;;;;5035194;28;20107;-86
2022/11/05 04:55:53;;;;;;;7.15;6.55;;;;;;;;;;5034926;28;20053;-86
2022/11/05 04:58:20;;;;;;;5.82;5.15;;;;;;;;;;5035350;28;20111;-87
2022/11/05 05:00:49;;;;;;;7.57;4.93;;;;;;;;;;5035082;28;20045;-87
2022/11/05 05:03:17;;;;;;;6.68;6.00;;;;;;;;;;5034598;28;20042;-88
2022/11/05 05:05:43;;;;;;;7.45;5.63;;;;;;;;;;5030816;28;20053;-87
2022/11/05 05:08:10;;;;;;;5.40;4.65;;;;;;;;;;5034523;28;20409;-87
2022/11/05 05:10:36;;;;;;;6.88;5.93;;;;;;;;;;5034574;28;20057;-87
2022/11/05 05:13:03;;;;;;;8.32;5.18;;;;;;;;;;5034202;28;20556;-87
2022/11/05 05:15:29;;;;;;;11.40;4.78;;;;;;;;;;5024672;28;20046;-88
2022/11/05 05:17:56;;;;;;;7.68;6.85;;;;;;;;;;5015137;28;20556;-88
2022/11/05 05:23:08;;;;;;;7.30;5.65;;;;;;;;;;5024055;28;20057;-87
2022/11/05 05:25:34;;;;;;;6.05;5.57;;;;;;;;;;5027774;28;20119;-87
2022/11/05 05:28:01;;;;;;;8.73;6.88;;;;;;;;;;5027648;28;20112;-87
2022/11/05 05:30:27;;;;;;;6.55;5.97;;;;;;;;;;5038281;28;20049;-87
2022/11/05 05:32:54;;;;;;;6.50;5.85;;;;;;;;;;5033887;28;20045;-87
2022/11/05 05:35:20;;;;;;;4.60;4.10;;;;;;;;;;5026102;28;20045;-87
2022/11/05 05:37:48;;;;;;;7.53;5.95;;;;;;;;;;5014295;28;20104;-86
2022/11/05 05:40:14;;;;;;;7.90;6.32;;;;;;;;;;5028543;28;20061;-87
2022/11/05 05:42:41;;;;;;;10.75;7.43;;;;;;;;;;5033544;28;20058;-87
2022/11/05 05:45:08;;;;;;;10.68;7.88;;;;;;;;;;5034234;28;20406;-86
2022/11/05 05:47:34;;;;;;;6.82;5.88;;;;;;;;;;5035433;28;20456;-88
2022/11/05 05:50:01;;;;;;;9.38;6.90;;;;;;;;;;5034980;28;20111;-87
2022/11/05 05:52:27;;;;;;;7.82;6.78;;;;;;;;;;5028937;28;20115;-88
2022/11/05 05:54:55;;;;;;;12.20;5.35;;;;;;;;;;5032785;28;20053;-87
2022/11/05 05:57:21;;;;;;;6.05;4.90;;;;;;;;;;5032953;28;20053;-87
2022/11/05 05:59:48;;;;;;;6.18;5.68;;;;;;;;;;5043549;28;20049;-87
2022/11/05 06:02:14;;;;;;;6.55;6.05;;;;;;;;;;5053437;28;20852;-87
2022/11/05 06:04:41;;;;;;;8.73;7.15;;;;;;;;;;5049537;28;20110;-87
2022/11/05 06:07:07;;;;;;;8.93;7.93;;;;;;;;;;5039972;28;20852;-87
2022/11/05 06:09:34;;;;;;;6.00;5.43;;;;;;;;;;5033324;28;20056;-87
2022/11/05 06:12:02;;;;;;;8.60;7.63;;;;;;;;;;5033245;28;20391;-87
2022/11/05 06:14:28;;;;;;;11.20;7.78;;;;;;;;;;5035146;28;20637;-87
2022/11/05 06:16:55;;;;;;;7.53;6.88;;;;;;;;;;5033051;28;20049;-88
2022/11/05 06:19:21;;;;;;;10.80;9.70;;;;;;;;;;5032756;28;20476;-88
2022/11/05 06:21:48;;;;;;;8.30;6.88;;;;;;;;;;5018096;28;20104;-88
2022/11/05 06:24:14;;;;;;;7.20;6.25;;;;;;;;;;5019990;28;20089;-88
2022/11/05 06:26:42;;;;;;;12.45;8.48;;;;;;;;;;5043691;28;20057;-88
2022/11/05 06:29:10;;;;;;;11.10;10.00;;;;;;;;;;5033070;28;20075;-88
2022/11/05 06:31:36;;;;;;;13.32;12.00;;;;;;;;;;5032767;28;20099;-88
2022/11/05 06:34:03;;;;;;;34.22;18.08;;;;;;;;;;5033713;28;20088;-89
2022/11/05 06:36:29;;;;;;;27.08;21.65;;;;;;;;;;5040722;28;20053;-88
2022/11/05 06:38:56;;;;;;;25.95;20.08;;;;;;;;;;5032445;28;20053;-88
2022/11/05 06:41:22;;;;;;;43.58;27.73;;;;;;;;;;5032837;28;20053;-88
2022/11/05 06:43:50;;;;;;;27.13;13.90;;;;;;;;;;5034894;28;20387;-87
2022/11/05 06:46:18;;;;;;;16.75;14.52;;;;;;;;;;5039539;28;20045;-87
2022/11/05 06:48:45;;;;;;;13.98;12.30;;;;;;;;;;5032235;28;20053;-87
2022/11/05 06:51:11;;;;;;;16.70;15.07;;;;;;;;;;5050705;28;20049;-87
2022/11/05 06:53:38;;;;;;;10.90;7.93;;;;;;;;;;5032518;28;20045;-87
2022/11/05 06:56:05;;;;;;;8.73;7.90;;;;;;;;;;5044949;28;20061;-86
2022/11/05 06:58:31;;;;;;;8.07;7.35;;;;;;;;;;5032098;28;20088;-87
2022/11/05 07:01:00;;;;;;;13.05;8.73;;;;;;;;;;5032757;28;20492;-87
2022/11/05 07:03:28;;;;;;;8.02;7.03;;;;;;;;;;5031685;28;20045;-88
2022/11/05 07:05:54;;;;;;;16.08;6.97;;;;;;;;;;5032779;28;20053;-87
2022/11/05 07:08:21;;;;;;;6.65;5.70;;;;;;;;;;5032042;28;20504;-87
2022/11/05 07:10:48;;;;;;;8.85;7.95;;;;;;;;;;5033109;28;20045;-87
2022/11/05 07:13:14;;;;;;;6.40;5.65;;;;;;;;;;5032113;28;20050;-87
2022/11/05 07:15:41;;;;;;;8.73;6.85;;;;;;;;;;5032658;28;20080;-87
2022/11/05 07:18:08;;;;;;;8.80;7.30;;;;;;;;;;5041045;28;20107;-88
2022/11/05 07:20:36;;;;;;;9.38;6.78;;;;;;;;;;5051430;28;20098;-88
2022/11/05 07:23:03;;;;;;;8.60;7.88;;;;;;;;;;5047318;28;20088;-87
2022/11/05 07:25:30;;;;;;;9.68;8.88;;;;;;;;;;5031375;28;20049;-87
2022/11/05 07:27:56;;;;;;;7.45;6.78;;;;;;;;;;5032967;28;20091;-86
2022/11/05 07:30:24;;;;;;;12.63;7.32;;;;;;;;;;5032488;28;20049;-88
2022/11/05 07:32:50;;;;;;;6.22;5.82;;;;;;;;;;5031666;28;20046;-88
2022/11/05 07:35:17;;;;;;;9.48;8.60;;;;;;;;;;5031324;28;20049;-87
2022/11/05 07:37:46;;;;;;;9.68;8.77;;;;;;;;;;5036967;28;20087;-89
2022/11/05 07:40:13;;;;;;;7.25;6.68;;;;;;;;;;5051814;28;20060;-87
2022/11/05 07:42:41;;;;;;;9.65;8.75;;;;;;;;;;5040289;28;20049;-88
2022/11/05 07:45:08;;;;;;;7.57;6.82;;;;;;;;;;5051765;28;20049;-87
2022/11/05 07:47:36;;;;;;;9.18;8.18;;;;;;;;;;5051420;28;20057;-88
2022/11/05 07:50:02;;;;;;;5.53;5.07;;;;;;;;;;5051485;28;20615;-89
2022/11/05 07:52:30;;;;;;;6.10;5.32;;;;;;;;;;5051509;28;20049;-88
2022/11/05 07:54:58;;;;;;;8.93;8.13;;;;;;;;;;5051651;28;20554;-87
2022/11/05 07:57:25;;;;;;;9.43;8.65;;;;;;;;;;5049100;28;20456;-88
2022/11/05 07:59:51;;;;;;;7.22;6.70;;;;;;;;;;5016782;28;20053;-88
2022/11/05 08:02:18;;;;;;;22.38;9.00;;;;;;;;;;5013818;28;20050;-88
2022/11/05 08:04:44;;;;;;;11.15;8.23;;;;;;;;;;5036769;28;20084;-88
2022/11/05 08:07:11;;;;;;;8.88;6.35;;;;;;;;;;5031714;28;20471;-87
2022/11/05 08:09:37;;;;;;;6.95;6.07;;;;;;;;;;5031681;28;20045;-87
2022/11/05 08:12:06;;;;;;;8.40;7.15;;;;;;;;;;5031974;28;20135;-87
2022/11/05 08:14:32;;;;;;;7.25;6.65;;;;;;;;;;5031544;28;20497;-87
2022/11/05 08:16:59;;;;;;;9.80;8.80;;;;;;;;;;5022706;28;20054;-88
2022/11/05 08:19:25;;;;;;;8.35;7.53;;;;;;;;;;5046849;28;20520;-88
2022/11/05 08:21:52;;;;;;;8.45;7.53;;;;;;;;;;5051584;28;20098;-89
2022/11/05 08:24:18;;;;;;;8.75;7.03;;;;;;;;;;5034305;28;20680;-90
2022/11/05 08:26:45;;;;;;;10.10;7.80;;;;;;;;;;5031610;28;20053;-89
2022/11/05 08:29:13;;;;;;;11.90;7.10;;;;;;;;;;5031884;28;20116;-89
2022/11/05 08:31:39;;;;;;;10.93;9.98;;;;;;;;;;5026845;28;20115;-87
2022/11/05 08:34:06;;;;;;;10.48;8.60;;;;;;;;;;5039478;28;20052;-89
2022/11/05 08:36:34;;;;;;;18.10;14.70;;;;;;;;;;5051231;28;20140;-86
2022/11/05 08:39:00;;;;;;;9.77;8.88;;;;;;;;;;5051281;28;20091;-86
2022/11/05 08:41:27;;;;;;;8.57;7.85;;;;;;;;;;5051590;28;20052;-87
2022/11/05 08:43:54;;;;;;;8.65;7.63;;;;;;;;;;5051145;28;20072;-89
2022/11/05 08:46:22;;;;;;;10.18;9.23;;;;;;;;;;5051397;28;20052;-87
2022/11/05 08:48:49;;;;;;;8.38;7.53;;;;;;;;;;5032471;28;20544;-88
2022/11/05 08:51:15;;;;;;;7.72;7.05;;;;;;;;;;5035337;28;20148;-89
2022/11/05 08:53:42;;;;;;;8.55;7.18;;;;;;;;;;5044983;28;20114;-88
2022/11/05 08:56:08;;;;;;;7.20;6.25;;;;;;;;;;5054612;28;20045;-89
2022/11/05 08:58:35;;;;;;;8.93;8.00;;;;;;;;;;5054689;28;20048;-89
2022/11/05 09:01:03;;;;;;;7.82;7.03;;;;;;;;;;5054807;28;20102;-89
2022/11/05 09:03:31;;;;;;;9.43;8.57;;;;;;;;;;5049835;28;20045;-88
2022/11/05 09:05:58;;;;;;;8.05;7.28;;;;;;;;;;5033722;28;20111;-88
2022/11/05 09:08:24;;;;;;;7.47;6.72;;;;;;;;;;5034425;28;20091;-88
2022/11/05 09:10:51;;;;;;;8.02;7.38;;;;;;;;;;5034506;28;20054;-88
2022/11/05 09:13:17;;;;;;;8.60;7.72;;;;;;;;;;5034778;28;20387;-88
2022/11/05 09:15:44;;;;;;;9.57;8.82;;;;;;;;;;5034591;28;20045;-88
2022/11/05 09:18:12;;;;;;;6.82;6.32;;;;;;;;;;5034174;28;20057;-88
2022/11/05 09:20:40;;;;;;;9.02;8.32;;;;;;;;;;5034145;28;20157;-88
2022/11/05 09:23:07;;;;;;;7.45;6.70;;;;;;;;;;5036833;28;20045;-88
2022/11/05 09:25:34;;;;;;;9.02;8.13;;;;;;;;;;5048541;28;20060;-88
2022/11/05 09:28:10;;;;;;;8.15;7.45;;;;;;;;;;5051634;28;20127;-88
2022/11/05 09:30:39;;;;;;;8.10;6.97;;;;;;;;;;5034077;28;20107;-88
2022/11/05 09:33:06;;;;;;;8.95;6.55;;;;;;;;;;5036665;28;20111;-88
2022/11/05 09:35:32;;;;;;;6.07;5.60;;;;;;;;;;5053930;28;20049;-87
2022/11/05 09:38:00;;;;;;;8.20;5.95;;;;;;;;;;5052374;28;20053;-87
2022/11/05 09:40:29;;;;;;;6.10;5.25;;;;;;;;;;5034044;28;20171;-88
2022/11/05 09:42:56;;;;;;;6.95;6.35;;;;;;;;;;5034021;28;20132;-88
2022/11/05 09:45:24;;;;;;;8.93;8.10;;;;;;;;;;5034110;28;20448;-88
2022/11/05 09:47:52;;;;;;;6.85;6.03;;;;;;;;;;5033882;28;20053;-88
2022/11/05 09:50:20;;;;;;;9.52;6.35;;;;;;;;;;5026179;28;20046;-89
2022/11/05 09:52:46;;;;;;;13.25;8.00;;;;;;;;;;5014937;28;20053;-91
2022/11/05 09:55:19;;;;;;;9.75;6.15;;;;;;;;;;5052157;28;20049;-89
2022/11/05 09:57:49;;;;;;;8.02;7.32;;;;;;;;;;5053988;28;20053;-89
2022/11/05 10:00:16;;;;;;;8.95;8.13;;;;;;;;;;5034316;28;20049;-89
2022/11/05 10:02:48;;;;;;;12.07;7.68;;;;;;;;;;5034195;28;20387;-90
2022/11/05 10:05:15;;;;;;;9.00;8.20;;;;;;;;;;5033368;28;20563;-88
2022/11/05 10:07:43;;;;;;;7.78;7.03;;;;;;;;;;5032149;28;20050;-90
2022/11/05 10:10:18;;;;;;;7.07;6.47;;;;;;;;;;5034081;28;20049;-88
2022/11/05 10:12:50;;;;;;;8.57;7.35;;;;;;;;;;5034135;28;20053;-88
2022/11/05 10:15:20;;;;;;;6.80;6.20;;;;;;;;;;5033973;28;20053;-90
2022/11/05 10:17:49;;;;;;;7.20;5.75;;;;;;;;;;5033796;28;20049;-89
2022/11/05 10:20:19;;;;;;;7.68;7.18;;;;;;;;;;5051100;28;20115;-89
2022/11/05 10:22:46;;;;;;;8.73;8.02;;;;;;;;;;5049998;28;20744;-89
2022/11/05 10:25:16;;;;;;;7.65;6.97;;;;;;;;;;5031086;28;20049;-89
2022/11/05 10:27:43;;;;;;;6.57;5.97;;;;;;;;;;5033064;28;20111;-89
2022/11/05 10:30:13;;;;;;;7.45;6.80;;;;;;;;;;5033274;28;20099;-89
2022/11/05 10:32:41;;;;;;;9.50;8.23;;;;;;;;;;5032664;28;20041;-89
2022/11/05 10:35:12;;;;;;;8.73;8.02;;;;;;;;;;5033109;28;20057;-88
2022/11/05 10:37:39;;;;;;;9.40;8.70;;;;;;;;;;5032601;28;20115;-89
2022/11/05 10:40:12;;;;;;;10.45;8.73;;;;;;;;;;5033151;28;20057;-89
2022/11/05 10:42:44;;;;;;;7.53;5.55;;;;;;;;;;5033513;28;20053;-89
2022/11/05 10:45:19;;;;;;;6.78;6.22;;;;;;;;;;5049358;28;20079;-89
2022/11/05 10:47:51;;;;;;;8.50;7.70;;;;;;;;;;5053638;28;20106;-90
2022/11/05 10:50:19;;;;;;;8.32;7.65;;;;;;;;;;5037261;28;20107;-90
2022/11/05 10:52:52;;;;;;;7.05;6.55;;;;;;;;;;5033457;28;20057;-89
2022/11/05 10:55:21;;;;;;;8.15;5.95;;;;;;;;;;5032934;28;20053;-90
2022/11/05 10:57:48;;;;;;;8.88;8.10;;;;;;;;;;5018893;28;20568;-90
2022/11/05 11:00:24;;;;;;;7.25;6.82;;;;;;;;;;5043959;28;20161;-90
2022/11/05 11:02:51;;;;;;;8.55;6.93;;;;;;;;;;5036650;28;20146;-89
2022/11/05 11:05:20;;;;;;;7.78;7.05;;;;;;;;;;5033220;28;20056;-89
2022/11/05 11:07:53;;;;;;;6.07;5.68;;;;;;;;;;5032300;28;20146;-89
2022/11/05 11:10:21;;;;;;;8.30;6.00;;;;;;;;;;5047840;28;20076;-90
2022/11/05 11:12:48;;;;;;;5.50;5.00;;;;;;;;;;5052360;28;20111;-90
2022/11/05 11:15:20;;;;;;;6.30;5.85;;;;;;;;;;5032177;28;20061;-89
2022/11/05 11:17:48;;;;;;;7.47;6.97;;;;;;;;;;5032149;28;20061;-90
2022/11/05 11:20:21;;;;;;;7.20;6.72;;;;;;;;;;5032124;28;20453;-90
2022/11/05 11:23:01;;;;;;;6.10;5.60;;;;;;;;;;5032128;28;20045;-90
2022/11/05 11:25:28;;;;;;;7.28;6.55;;;;;;;;;;5047626;28;20459;-90
2022/11/05 11:27:55;;;;;;;5.32;4.82;;;;;;;;;;5052235;28;20052;-90
2022/11/05 11:30:22;;;;;;;6.57;5.88;;;;;;;;;;5036470;28;20045;-89
2022/11/05 11:32:50;;;;;;;7.43;6.93;;;;;;;;;;5016954;28;20057;-90
2022/11/05 11:35:21;;;;;;;6.47;5.85;;;;;;;;;;5039655;28;20492;-90
2022/11/05 11:37:48;;;;;;;7.47;6.90;;;;;;;;;;5052001;28;20111;-89
2022/11/05 11:40:16;;;;;;;7.93;7.43;;;;;;;;;;5038453;28;20099;-89
2022/11/05 11:42:45;;;;;;;8.63;7.78;;;;;;;;;;5032187;28;20119;-89
2022/11/05 11:45:15;;;;;;;8.32;7.38;;;;;;;;;;5044485;28;20067;-89
2022/11/05 11:47:43;;;;;;;7.50;7.00;;;;;;;;;;5026114;28;20103;-89
2022/11/05 11:50:32;;;;;;;7.25;6.63;;;;;;;;;;5025093;28;20060;-90
2022/11/05 11:53:13;;;;;;;8.30;7.55;;;;;;;;;;5031785;28;20084;-89
2022/11/05 11:55:40;;;;;;;7.00;6.60;;;;;;;;;;5031238;28;20049;-90
2022/11/05 11:58:07;;;;;;;6.55;6.05;;;;;;;;;;5031974;28;20053;-89
2022/11/05 12:00:36;;;;;;;10.52;6.60;;;;;;;;;;5031597;28;20080;-89
2022/11/05 12:03:18;;;;;;;8.52;5.85;;;;;;;;;;5032001;28;20049;-90
2022/11/05 12:05:48;;;;;;;6.75;6.13;;;;;;;;;;5027972;28;20054;-89
2022/11/05 12:08:38;;;;;;;7.07;6.57;;;;;;;;;;5031047;28;20456;-90
2022/11/05 12:11:07;;;;;;;7.53;6.72;;;;;;;;;;5031310;28;20065;-90
2022/11/05 12:13:51;;;;;;;7.18;6.38;;;;;;;;;;5032197;28;20111;-89
2022/11/05 12:16:24;;;;;;;7.70;6.10;;;;;;;;;;5026691;28;20049;-89
2022/11/05 12:18:54;;;;;;;8.38;7.78;;;;;;;;;;5031304;28;20049;-89
2022/11/05 12:21:28;;;;;;;7.25;6.75;;;;;;;;;;5029911;28;20049;-89
2022/11/05 12:24:20;;;;;;;6.03;5.63;;;;;;;;;;5031963;28;20042;-89
2022/11/05 12:26:50;;;;;;;8.35;7.20;;;;;;;;;;5015937;28;20052;-89
2022/11/05 12:29:23;;;;;;;7.85;7.35;;;;;;;;;;5020764;28;20046;-89
2022/11/05 12:31:55;;;;;;;7.10;6.50;;;;;;;;;;5055088;28;20052;-89
2022/11/05 12:34:29;;;;;;;5.60;5.18;;;;;;;;;;5055789;28;20064;-89
2022/11/05 12:37:04;;;;;;;5.53;4.78;;;;;;;;;;5055776;28;20052;-89
2022/11/05 12:39:43;;;;;;;7.82;7.32;;;;;;;;;;5055580;28;20091;-89
2022/11/05 12:42:15;;;;;;;7.20;5.55;;;;;;;;;;5040000;28;20056;-89
2022/11/05 12:44:55;;;;;;;5.05;4.70;;;;;;;;;;5020521;28;20041;-90
2022/11/05 12:47:31;;;;;;;6.47;6.00;;;;;;;;;;5035144;28;20046;-88
2022/11/05 12:50:04;;;;;;;5.97;5.68;;;;;;;;;;5035548;28;20046;-89
2022/11/05 12:52:38;;;;;;;7.32;6.88;;;;;;;;;;5035574;28;20049;-88
2022/11/05 12:55:07;;;;;;;9.52;8.82;;;;;;;;;;5036430;28;20092;-89
2022/11/05 12:57:36;;;;;;;7.20;6.43;;;;;;;;;;5034365;28;20547;-89
2022/11/05 13:00:06;;;;;;;6.10;5.70;;;;;;;;;;5022212;28;20045;-89
2022/11/05 13:02:34;;;;;;;6.85;6.43;;;;;;;;;;5034668;28;20050;-88
2022/11/05 13:05:04;;;;;;;7.53;6.97;;;;;;;;;;5035503;28;20087;-89
2022/11/05 13:07:33;;;;;;;7.53;6.93;;;;;;;;;;5035135;28;20084;-89
2022/11/05 13:10:04;;;;;;;5.70;5.22;;;;;;;;;;5034853;28;20455;-88
2022/11/05 13:12:33;;;;;;;5.47;5.07;;;;;;;;;;5034684;28;20049;-88
2022/11/05 13:15:02;;;;;;;5.07;4.78;;;;;;;;;;5032272;28;20099;-88
2022/11/05 13:17:31;;;;;;;8.15;7.22;;;;;;;;;;5033054;28;20057;-88
2022/11/05 13:20:02;;;;;;;5.60;5.07;;;;;;;;;;5034281;28;20046;-89
2022/11/05 13:22:33;;;;;;;5.68;5.22;;;;;;;;;;5034687;28;20053;-88
2022/11/05 13:25:02;;;;;;;5.82;5.43;;;;;;;;;;5039293;28;20041;-89
2022/11/05 13:27:47;;;;;;;7.82;7.25;;;;;;;;;;5054376;28;20182;-88
2022/11/05 13:30:15;;;;;;;6.03;5.50;;;;;;;;;;5046865;28;20057;-88
2022/11/05 13:32:45;;;;;;;6.03;5.72;;;;;;;;;;5022080;28;20050;-88
2022/11/05 13:35:15;;;;;;;7.53;6.90;;;;;;;;;;5019665;28;20148;-88
2022/11/05 13:40:36;;;;;;;5.22;4.72;;;;;;;;;;5043390;28;19986;-88
2022/11/05 13:43:02;;;;;;;;;;;;;;;;;;5054510;28;20516;-89
2022/11/05 13:45:39;;;;;;;5.53;5.13;;;;;;;;;;5045276;28;20011;-88
2022/11/05 13:48:14;;;;;;;5.50;5.10;;;;;;;;;;5034251;28;20123;-88
2022/11/05 13:50:56;;;;;;;5.65;5.25;;;;;;;;;;5035920;28;20055;-88
2022/11/05 13:53:41;;;;;;;7.68;7.15;;;;;;;;;;5054075;28;20048;-89
2022/11/05 13:56:18;;;;;;;6.55;6.05;;;;;;;;;;5034367;28;20061;-89
2022/11/05 13:59:05;;;;;;;5.63;5.22;;;;;;;;;;5033837;28;20049;-88
2022/11/05 14:01:42;;;;;;;5.40;5.07;;;;;;;;;;5031279;28;20556;-88
2022/11/05 14:04:14;;;;;;;5.00;4.60;;;;;;;;;;5033083;28;20490;-88
2022/11/05 14:06:41;;;;;;;4.43;4.10;;;;;;;;;;5030527;28;20045;-88
2022/11/05 14:09:09;;;;;;;4.93;4.47;;;;;;;;;;5013915;28;20553;-88
2022/11/05 14:11:37;;;;;;;5.65;5.15;;;;;;;;;;5029548;28;20049;-88
2022/11/05 14:14:05;;;;;;;5.00;4.57;;;;;;;;;;5033353;28;20080;-88
2022/11/05 14:16:47;;;;;;;6.18;5.70;;;;;;;;;;5048636;28;20049;-88
2022/11/05 14:19:32;;;;;;;5.68;5.15;;;;;;;;;;5053459;28;20118;-88
2022/11/05 14:21:59;;;;;;;6.82;6.32;;;;;;;;;;5053148;28;20057;-88
2022/11/05 14:24:27;;;;;;;4.97;4.47;;;;;;;;;;5040131;28;20054;-88
2022/11/05 14:27:14;;;;;;;5.90;5.47;;;;;;;;;;5049126;28;20045;-88
2022/11/05 14:29:41;;;;;;;6.25;5.75;;;;;;;;;;5012829;28;20842;-88
2022/11/05 14:32:22;;;;;;;6.38;5.75;;;;;;;;;;5032630;28;20053;-88
2022/11/05 14:34:54;;;;;;;6.85;6.32;;;;;;;;;;5033369;28;20045;-88
2022/11/05 14:37:22;;;;;;;4.82;4.43;;;;;;;;;;5052874;28;20111;-88
2022/11/05 14:39:49;;;;;;;5.28;4.88;;;;;;;;;;5053240;28;20174;-88
2022/11/05 14:42:17;;;;;;;8.98;6.30;;;;;;;;;;5013283;28;20414;-88
2022/11/05 14:45:04;;;;;;;6.38;5.82;;;;;;;;;;5012373;28;20056;-88
2022/11/05 14:47:32;;;;;;;5.40;4.90;;;;;;;;;;5012012;28;20108;-88
2022/11/05 14:50:03;;;;;;;4.22;3.92;;;;;;;;;;5018733;28;20076;-88
2022/11/05 14:52:29;;;;;;;7.55;5.60;;;;;;;;;;5052447;28;20045;-88
2022/11/05 14:54:58;;;;;;;4.72;4.32;;;;;;;;;;5052714;28;20099;-88
2022/11/05 14:57:43;;;;;;;7.05;4.75;;;;;;;;;;5012947;28;20053;-88
2022/11/05 15:00:35;;;;;;;6.00;5.60;;;;;;;;;;5028884;28;20687;-86
2022/11/05 15:03:02;;;;;;;4.80;4.40;;;;;;;;;;5032439;28;20050;-87
2022/11/05 15:05:48;;;;;;;5.60;5.15;;;;;;;;;;5032379;28;20083;-88
2022/11/05 15:08:34;;;;;;;5.88;5.22;;;;;;;;;;5028196;28;20056;-88
2022/11/05 15:11:09;;;;;;;5.18;4.78;;;;;;;;;;5032334;28;20111;-88
2022/11/05 15:13:38;;;;;;;4.10;3.75;;;;;;;;;;5032052;28;20053;-88
2022/11/05 15:16:05;;;;;;;9.02;6.18;;;;;;;;;;5041129;28;20102;-88
2022/11/05 15:18:33;;;;;;;5.28;4.82;;;;;;;;;;5052510;28;20106;-87
2022/11/05 15:21:03;;;;;;;5.72;4.60;;;;;;;;;;5052967;28;20083;-91
2022/11/05 15:23:35;;;;;;;3.92;3.55;;;;;;;;;;5034542;28;20133;-88
2022/11/05 15:26:05;;;;;;;5.78;4.57;;;;;;;;;;5013324;28;20046;-87
2022/11/05 15:28:34;;;;;;;6.88;6.28;;;;;;;;;;5012703;28;20050;-87
2022/11/05 15:31:01;;;;;;;6.43;4.72;;;;;;;;;;5026352;28;20162;-87
2022/11/05 15:33:28;;;;;;;5.75;5.18;;;;;;;;;;5051624;28;20052;-87
2022/11/05 15:35:55;;;;;;;5.55;5.10;;;;;;;;;;5033817;28;20049;-88
2022/11/05 15:38:28;;;;;;;5.20;3.90;;;;;;;;;;5032255;28;20053;-88